Time;durP1;ratioP1;P1;durP2;ratioP2;P2;SDS_P1;SDS_P2;PMS_P1;PMS_P2;Temp;Humidity;BMP_temperature;BMP_pressure;BME280_temperature;BME280_humidity;BME280_pressure;Samples;Min_cycle;Max_cycle;Signal;HPM_P1;HPM_P2
2023/05/22 00:01:25;;;;;;;;;48.67;37.00;;;;;;;;4953715;28;46377;-82
2023/05/22 00:03:50;;;;;;;;;20.33;17.33;;;;;;;;4954270;28;45406;-80
2023/05/22 00:06:17;;;;;;;;;10.67;9.67;;;;;;;;4950099;28;45319;-82
2023/05/22 00:08:42;;;;;;;;;19.00;18.67;;;;;;;;4952672;28;45683;-83
2023/05/22 00:11:07;;;;;;;;;18.33;16.67;;;;;;;;4940190;28;45579;-82
2023/05/22 00:13:33;;;;;;;;;15.33;14.00;;;;;;;;4943123;28;45496;-84
2023/05/22 00:15:58;;;;;;;;;10.33;10.33;;;;;;;;4941010;28;45542;-82
2023/05/22 00:18:25;;;;;;;;;14.33;11.00;;;;;;;;4954353;28;45544;-81
2023/05/22 00:20:52;;;;;;;;;17.00;11.67;;;;;;;;4955478;28;45679;-82
2023/05/22 00:23:17;;;;;;;;;14.67;12.67;;;;;;;;4951474;28;46433;-84
2023/05/22 00:25:42;;;;;;;;;12.67;12.67;;;;;;;;4958403;28;45745;-82
2023/05/22 00:28:07;;;;;;;;;21.33;14.33;;;;;;;;4955351;28;45922;-80
2023/05/22 00:30:33;;;;;;;;;29.00;25.67;;;;;;;;4965742;28;46733;-81
2023/05/22 00:32:58;;;;;;;;;14.00;12.67;;;;;;;;4947776;28;45746;-82
2023/05/22 00:35:23;;;;;;;;;25.33;15.33;;;;;;;;4954165;28;45823;-82
2023/05/22 00:37:48;;;;;;;;;20.00;16.00;;;;;;;;4955880;28;45702;-82
2023/05/22 00:40:17;;;;;;;;;12.00;12.00;;;;;;;;4958090;28;46132;-82
2023/05/22 00:42:42;;;;;;;;;20.67;15.00;;;;;;;;4944958;28;45779;-81
2023/05/22 00:45:09;;;;;;;;;27.00;21.67;;;;;;;;4946990;28;45624;-82
2023/05/22 00:47:34;;;;;;;;;20.33;14.00;;;;;;;;4945044;28;45890;-82
2023/05/22 00:49:59;;;;;;;;;20.00;18.00;;;;;;;;4947192;28;45880;-82
2023/05/22 00:52:25;;;;;;;;;17.00;16.33;;;;;;;;4953900;28;45502;-83
2023/05/22 00:54:52;;;;;;;;;14.00;11.33;;;;;;;;4955823;28;45543;-82
2023/05/22 00:57:19;;;;;;;;;14.67;14.67;;;;;;;;4946817;28;46506;-82
2023/05/22 00:59:44;;;;;;;;;14.00;10.00;;;;;;;;4944639;28;46461;-81
2023/05/22 01:02:09;;;;;;;;;20.33;16.00;;;;;;;;4948330;28;45752;-84
2023/05/22 01:04:36;;;;;;;;;18.00;14.33;;;;;;;;4961138;28;45644;-83
2023/05/22 01:07:01;;;;;;;;;16.33;15.00;;;;;;;;4965167;28;45496;-83
2023/05/22 01:09:27;;;;;;;;;10.67;10.00;;;;;;;;4962092;28;46475;-84
2023/05/22 01:12:18;;;;;;;;;16.67;16.67;;;;;;;;4957437;28;45412;-83
2023/05/22 01:14:50;;;;;;;;;14.67;11.67;;;;;;;;4966583;28;45449;-81
2023/05/22 01:17:22;;;;;;;;;21.00;17.00;;;;;;;;4962501;28;45501;-83
2023/05/22 01:20:00;;;;;;;;;16.00;13.67;;;;;;;;4957187;28;46635;-84
2023/05/22 01:22:25;;;;;;;;;10.33;10.33;;;;;;;;4963091;28;45830;-84
2023/05/22 01:25:10;;;;;;;;;10.67;10.67;;;;;;;;4962797;28;46539;-83
2023/05/22 01:27:41;;;;;;;;;9.33;8.67;;;;;;;;4955906;28;46052;-82
2023/05/22 01:30:15;;;;;;;;;14.67;11.00;;;;;;;;4966450;28;46016;-83
2023/05/22 01:32:42;;;;;;;;;11.33;10.00;;;;;;;;4953034;28;45357;-81
2023/05/22 01:35:10;;;;;;;;;16.00;14.33;;;;;;;;4954379;28;45857;-83
2023/05/22 01:37:36;;;;;;;;;15.33;10.67;;;;;;;;4962242;28;45781;-83
2023/05/22 01:40:02;;;;;;;;;14.33;10.00;;;;;;;;4962967;28;45461;-84
2023/05/22 01:42:27;;;;;;;;;16.00;12.67;;;;;;;;4968582;28;45616;-82
2023/05/22 01:44:53;;;;;;;;;11.00;10.33;;;;;;;;4968742;28;45251;-83
2023/05/22 01:47:18;;;;;;;;;14.00;13.00;;;;;;;;4964338;28;45728;-82
2023/05/22 01:49:44;;;;;;;;;15.67;9.33;;;;;;;;4967834;28;46383;-80
2023/05/22 01:52:36;;;;;;;;;21.33;17.67;;;;;;;;4955051;28;45904;-82
2023/05/22 01:55:08;;;;;;;;;11.67;8.67;;;;;;;;4948247;28;45708;-82
2023/05/22 01:57:42;;;;;;;;;9.33;9.33;;;;;;;;4952647;28;45589;-80
2023/05/22 02:00:09;;;;;;;;;13.67;12.33;;;;;;;;4964892;28;46267;-80
2023/05/22 02:02:36;;;;;;;;;15.00;13.33;;;;;;;;4956088;28;45679;-79
2023/05/22 02:05:03;;;;;;;;;14.00;12.67;;;;;;;;4953545;28;45730;-79
2023/05/22 02:07:29;;;;;;;;;24.33;21.67;;;;;;;;4951146;28;45828;-78
2023/05/22 02:09:55;;;;;;;;;20.33;15.33;;;;;;;;4965978;28;46431;-81
2023/05/22 02:12:22;;;;;;;;;21.33;17.00;;;;;;;;4950346;28;45456;-81
2023/05/22 02:14:48;;;;;;;;;13.50;11.00;;;;;;;;4949474;28;45552;-82
2023/05/22 02:17:13;;;;;;;;;18.33;14.33;;;;;;;;4957824;28;45884;-81
2023/05/22 02:19:38;;;;;;;;;13.00;12.33;;;;;;;;4956161;28;46926;-82
2023/05/22 02:22:03;;;;;;;;;24.00;19.00;;;;;;;;4955556;28;45523;-82
2023/05/22 02:24:29;;;;;;;;;23.00;19.33;;;;;;;;4961658;28;45681;-79
2023/05/22 02:26:55;;;;;;;;;20.00;17.67;;;;;;;;4976942;28;45499;-81
2023/05/22 02:29:20;;;;;;;;;19.67;19.00;;;;;;;;4972971;28;46105;-81
2023/05/22 02:31:45;;;;;;;;;14.33;11.00;;;;;;;;4953836;28;45473;-80
2023/05/22 02:34:10;;;;;;;;;13.00;10.67;;;;;;;;4956871;28;45750;-82
2023/05/22 02:36:36;;;;;;;;;13.33;12.33;;;;;;;;4959306;28;45761;-82
2023/05/22 02:39:01;;;;;;;;;12.33;11.67;;;;;;;;4955971;28;46194;-82
2023/05/22 02:41:26;;;;;;;;;20.67;12.67;;;;;;;;4958038;28;45887;-82
2023/05/22 02:43:52;;;;;;;;;14.00;12.33;;;;;;;;4968456;28;44837;-81
2023/05/22 02:46:17;;;;;;;;;15.00;10.67;;;;;;;;4957409;28;45488;-81
2023/05/22 02:48:44;;;;;;;;;15.00;12.00;;;;;;;;4956892;28;46134;-81
2023/05/22 02:51:09;;;;;;;;;19.33;16.67;;;;;;;;4960291;28;45778;-81
2023/05/22 02:53:38;;;;;;;;;14.67;12.00;;;;;;;;4970098;28;45635;-80
2023/05/22 02:56:04;;;;;;;;;21.33;15.67;;;;;;;;4965927;28;45600;-81
2023/05/22 02:58:29;;;;;;;;;16.67;13.00;;;;;;;;4964975;28;47209;-81
2023/05/22 03:00:55;;;;;;;;;16.00;16.00;;;;;;;;4958850;28;45402;-82
2023/05/22 03:03:20;;;;;;;;;16.00;13.67;;;;;;;;4950910;28;45439;-82
2023/05/22 03:05:45;;;;;;;;;20.33;17.33;;;;;;;;4969680;28;46890;-80
2023/05/22 03:08:10;;;;;;;;;17.67;17.67;;;;;;;;4959236;28;45610;-81
2023/05/22 03:10:37;;;;;;;;;10.33;7.67;;;;;;;;4957999;28;45476;-82
2023/05/22 03:13:02;;;;;;;;;18.00;14.33;;;;;;;;4951164;28;45463;-82
2023/05/22 03:15:27;;;;;;;;;15.67;12.67;;;;;;;;4956649;28;45286;-80
2023/05/22 03:17:52;;;;;;;;;17.33;14.67;;;;;;;;4969278;28;45443;-82
2023/05/22 03:20:18;;;;;;;;;18.33;14.33;;;;;;;;4957000;28;45282;-82
2023/05/22 03:22:43;;;;;;;;;18.00;17.33;;;;;;;;4957388;28;45430;-81
2023/05/22 03:25:08;;;;;;;;;11.67;11.67;;;;;;;;4954212;28;45406;-80
2023/05/22 03:27:34;;;;;;;;;13.67;12.00;;;;;;;;4954545;28;45395;-81
2023/05/22 03:29:59;;;;;;;;;21.33;19.67;;;;;;;;4962557;28;45470;-80
2023/05/22 03:32:24;;;;;;;;;12.00;9.67;;;;;;;;4952192;28;45791;-81
2023/05/22 03:34:50;;;;;;;;;19.00;14.00;;;;;;;;4950911;28;47330;-80
2023/05/22 03:37:15;;;;;;;;;13.00;11.67;;;;;;;;4952934;28;45552;-82
2023/05/22 03:39:40;;;;;;;;;14.67;11.33;;;;;;;;4967606;28;45528;-81
2023/05/22 03:42:05;;;;;;;;;16.67;13.00;;;;;;;;4970981;28;45273;-80
2023/05/22 03:44:31;;;;;;;;;15.00;10.33;;;;;;;;4963278;28;45644;-82
2023/05/22 03:46:56;;;;;;;;;15.33;14.00;;;;;;;;4967235;28;46398;-81
2023/05/22 03:49:21;;;;;;;;;14.33;13.33;;;;;;;;4964862;28;45260;-82
2023/05/22 03:51:46;;;;;;;;;20.33;14.67;;;;;;;;4956499;28;45387;-81
2023/05/22 03:54:12;;;;;;;;;11.00;11.00;;;;;;;;4959127;28;45754;-82
2023/05/22 03:56:37;;;;;;;;;18.33;14.00;;;;;;;;4955114;28;46523;-83
2023/05/22 03:59:02;;;;;;;;;9.67;8.33;;;;;;;;4954590;28;45787;-81
2023/05/22 04:01:28;;;;;;;;;11.67;11.67;;;;;;;;4953720;28;45798;-80
2023/05/22 04:03:53;;;;;;;;;13.00;11.67;;;;;;;;4948750;28;46206;-79
2023/05/22 04:06:20;;;;;;;;;14.33;11.00;;;;;;;;4965582;28;45919;-82
2023/05/22 04:08:46;;;;;;;;;16.00;13.67;;;;;;;;4948826;28;45467;-81
2023/05/22 04:11:14;;;;;;;;;14.67;11.33;;;;;;;;4953222;28;45218;-84
2023/05/22 04:13:39;;;;;;;;;15.67;12.33;;;;;;;;4961053;28;45435;-81
2023/05/22 04:16:05;;;;;;;;;15.33;13.67;;;;;;;;4947547;28;46374;-82
2023/05/22 04:18:30;;;;;;;;;12.00;12.00;;;;;;;;4956411;28;45428;-81
2023/05/22 04:20:56;;;;;;;;;15.00;13.00;;;;;;;;4935249;28;45747;-82
2023/05/22 04:23:21;;;;;;;;;15.00;13.67;;;;;;;;4938221;28;46920;-81
2023/05/22 04:25:47;;;;;;;;;16.33;13.33;;;;;;;;4953589;28;45764;-80
2023/05/22 04:28:12;;;;;;;;;15.67;12.33;;;;;;;;4935444;28;45433;-81
2023/05/22 04:30:38;;;;;;;;;19.00;17.00;;;;;;;;4934185;28;46818;-82
2023/05/22 04:33:04;;;;;;;;;14.67;12.33;;;;;;;;4952693;28;45477;-82
2023/05/22 04:35:29;;;;;;;;;13.67;10.33;;;;;;;;4940137;28;47258;-81
2023/05/22 04:37:55;;;;;;;;;17.33;16.00;;;;;;;;4945261;28;45404;-81
2023/05/22 04:40:20;;;;;;;;;25.00;22.67;;;;;;;;4949431;28;45563;-81
2023/05/22 04:42:46;;;;;;;;;18.00;17.67;;;;;;;;4944686;28;45461;-82
2023/05/22 04:45:12;;;;;;;;;33.67;28.00;;;;;;;;4951381;28;45384;-82
2023/05/22 04:47:40;;;;;;;;;20.67;17.00;;;;;;;;4953038;28;45353;-80
2023/05/22 04:50:06;;;;;;;;;15.67;14.00;;;;;;;;4950867;28;45868;-89
2023/05/22 04:52:31;;;;;;;;;13.67;12.33;;;;;;;;4943682;28;45587;-81
2023/05/22 04:54:56;;;;;;;;;21.33;17.33;;;;;;;;4942436;28;46136;-83
2023/05/22 04:57:24;;;;;;;;;13.33;12.33;;;;;;;;4945873;28;45467;-83
2023/05/22 04:59:50;;;;;;;;;16.00;12.00;;;;;;;;4941456;28;45911;-82
2023/05/22 05:02:16;;;;;;;;;14.33;11.00;;;;;;;;4942983;28;45766;-82
2023/05/22 05:04:42;;;;;;;;;18.67;15.00;;;;;;;;4952641;28;45847;-82
2023/05/22 05:07:07;;;;;;;;;15.67;13.00;;;;;;;;4944595;28;45508;-74
2023/05/22 05:09:32;;;;;;;;;13.67;12.33;;;;;;;;4937619;28;46694;-76
2023/05/22 05:11:58;;;;;;;;;11.33;10.00;;;;;;;;4939744;28;46158;-75
2023/05/22 05:14:23;;;;;;;;;14.33;14.00;;;;;;;;4944605;28;45841;-78
2023/05/22 05:16:50;;;;;;;;;18.33;13.00;;;;;;;;4940108;28;45365;-73
2023/05/22 05:19:16;;;;;;;;;15.67;12.67;;;;;;;;4937807;28;45446;-75
2023/05/22 05:21:41;;;;;;;;;15.33;12.00;;;;;;;;4941925;28;45868;-77
2023/05/22 05:24:06;;;;;;;;;11.33;11.00;;;;;;;;4946131;28;45376;-76
2023/05/22 05:26:32;;;;;;;;;13.00;11.00;;;;;;;;4940186;28;45795;-77
2023/05/22 05:28:57;;;;;;;;;16.67;14.33;;;;;;;;4944236;28;45821;-77
2023/05/22 05:31:22;;;;;;;;;11.33;10.33;;;;;;;;4951115;28;45772;-77
2023/05/22 05:33:49;;;;;;;;;11.33;10.00;;;;;;;;4951981;28;46636;-81
2023/05/22 05:36:15;;;;;;;;;14.67;13.67;;;;;;;;4952908;28;45471;-77
2023/05/22 05:38:40;;;;;;;;;14.33;12.67;;;;;;;;4949379;28;45437;-78
2023/05/22 05:41:05;;;;;;;;;8.67;8.67;;;;;;;;4950201;28;45344;-77
2023/05/22 05:43:34;;;;;;;;;11.00;11.00;;;;;;;;4946626;28;46472;-79
2023/05/22 05:45:59;;;;;;;;;13.33;12.00;;;;;;;;4959017;28;45852;-78
2023/05/22 05:48:24;;;;;;;;;10.67;10.67;;;;;;;;4955883;28;45546;-79
2023/05/22 05:50:50;;;;;;;;;12.00;9.67;;;;;;;;4958229;28;45550;-75
2023/05/22 05:53:15;;;;;;;;;13.67;9.33;;;;;;;;4955031;28;46244;-76
2023/05/22 05:55:40;;;;;;;;;14.00;8.33;;;;;;;;4958484;28;45566;-79
2023/05/22 05:58:06;;;;;;;;;10.33;9.00;;;;;;;;4955776;28;46013;-78
2023/05/22 06:00:31;;;;;;;;;13.67;9.67;;;;;;;;4954101;28;45584;-79
2023/05/22 06:02:56;;;;;;;;;11.67;11.33;;;;;;;;4946237;28;45795;-76
2023/05/22 06:05:22;;;;;;;;;9.67;9.00;;;;;;;;4954867;28;45487;-76
2023/05/22 06:07:47;;;;;;;;;15.00;12.00;;;;;;;;4952877;28;45484;-76
2023/05/22 06:10:13;;;;;;;;;13.67;11.00;;;;;;;;4952559;28;45995;-76
2023/05/22 06:12:38;;;;;;;;;12.33;12.00;;;;;;;;4951574;28;48079;-76
2023/05/22 06:15:04;;;;;;;;;7.67;7.00;;;;;;;;4950829;28;46064;-76
2023/05/22 06:17:30;;;;;;;;;10.33;9.67;;;;;;;;4964088;28;45542;-77
2023/05/22 06:19:55;;;;;;;;;10.00;9.67;;;;;;;;4950859;28;45783;-77
2023/05/22 06:22:20;;;;;;;;;11.67;9.33;;;;;;;;4953096;28;46445;-76
2023/05/22 06:24:45;;;;;;;;;11.67;11.67;;;;;;;;4956256;28;45865;-77
2023/05/22 06:27:11;;;;;;;;;12.00;9.67;;;;;;;;4950680;28;45390;-76
2023/05/22 06:29:36;;;;;;;;;13.33;9.67;;;;;;;;4948720;28;45783;-77
2023/05/22 06:32:04;;;;;;;;;12.67;10.67;;;;;;;;4939988;28;45929;-76
2023/05/22 06:34:29;;;;;;;;;14.67;10.67;;;;;;;;4949463;28;45935;-76
2023/05/22 06:36:55;;;;;;;;;8.67;7.00;;;;;;;;4951705;28;45912;-75
2023/05/22 06:39:20;;;;;;;;;13.33;13.00;;;;;;;;4950852;28;46307;-76
2023/05/22 06:41:45;;;;;;;;;15.33;11.33;;;;;;;;4945040;28;45459;-77
2023/05/22 06:44:11;;;;;;;;;11.33;10.67;;;;;;;;4951507;28;45702;-74
2023/05/22 06:46:36;;;;;;;;;9.00;8.50;;;;;;;;4958275;28;45446;-77
2023/05/22 06:49:02;;;;;;;;;9.25;8.75;;;;;;;;4952840;28;45515;-75
2023/05/22 06:51:28;;;;;;;;;8.75;8.75;;;;;;;;4953034;28;46147;-76
2023/05/22 06:53:53;;;;;;;;;6.00;6.00;;;;;;;;4952946;28;45773;-75
2023/05/22 06:56:18;;;;;;;;;11.00;8.75;;;;;;;;4951408;28;45532;-76
2023/05/22 06:58:43;;;;;;;;;9.50;8.25;;;;;;;;4948453;28;45430;-74
2023/05/22 07:01:09;;;;;;;;;9.33;9.33;;;;;;;;4962969;28;46200;-74
2023/05/22 07:03:34;;;;;;;;;10.75;9.50;;;;;;;;4947220;28;45612;-76
2023/05/22 07:06:00;;;;;;;;;10.50;10.00;;;;;;;;4949382;28;45412;-75
2023/05/22 07:08:26;;;;;;;;;11.25;8.75;;;;;;;;4944626;28;46225;-75
2023/05/22 07:10:51;;;;;;;;;9.00;7.00;;;;;;;;4952222;28;46365;-76
2023/05/22 07:13:16;;;;;;;;;12.75;7.50;;;;;;;;4950776;28;45905;-73
2023/05/22 07:15:42;;;;;;;;;10.00;10.00;;;;;;;;4964718;28;45653;-73
2023/05/22 07:18:08;;;;;;;;;12.75;8.00;;;;;;;;4961590;28;47391;-75
2023/05/22 07:20:34;;;;;;;;;9.00;7.00;;;;;;;;4958089;28;46503;-75
2023/05/22 07:22:59;;;;;;;;;8.00;7.00;;;;;;;;4950717;28;45445;-74
2023/05/22 07:25:24;;;;;;;;;9.50;8.00;;;;;;;;4951977;28;45359;-74
2023/05/22 07:27:50;;;;;;;;;11.00;8.25;;;;;;;;4953026;28;45489;-74
2023/05/22 07:30:15;;;;;;;;;8.50;7.75;;;;;;;;4951243;28;45739;-75
2023/05/22 07:32:40;;;;;;;;;7.75;6.00;;;;;;;;4948869;28;45780;-73
2023/05/22 07:35:06;;;;;;;;;9.00;9.00;;;;;;;;4938420;28;45794;-75
2023/05/22 07:37:31;;;;;;;;;8.25;8.25;;;;;;;;4948996;28;45989;-74
2023/05/22 07:39:57;;;;;;;;;12.75;10.75;;;;;;;;4952802;28;45485;-75
2023/05/22 07:42:22;;;;;;;;;14.25;10.25;;;;;;;;4951253;28;45764;-78
2023/05/22 07:44:47;;;;;;;;;9.25;6.25;;;;;;;;4953697;28;45449;-75
2023/05/22 07:47:12;;;;;;;;;11.25;8.00;;;;;;;;4943894;28;45780;-75
2023/05/22 07:49:38;;;;;;;;;10.25;8.75;;;;;;;;4949348;28;45796;-75
2023/05/22 07:52:03;;;;;;;;;8.50;7.50;;;;;;;;4949682;28;45684;-75
2023/05/22 07:54:28;;;;;;;;;8.75;6.75;;;;;;;;4952120;28;45563;-75
2023/05/22 07:56:54;;;;;;;;;7.50;6.75;;;;;;;;4952311;28;45691;-76
2023/05/22 07:59:20;;;;;;;;;6.00;6.00;;;;;;;;4950938;28;48408;-74
2023/05/22 08:01:46;;;;;;;;;7.50;7.50;;;;;;;;4952514;28;45958;-76
2023/05/22 08:04:11;;;;;;;;;7.25;7.00;;;;;;;;4951697;28;45811;-75
2023/05/22 08:06:38;;;;;;;;;5.00;4.25;;;;;;;;4950308;28;45823;-75
2023/05/22 08:09:03;;;;;;;;;7.25;7.25;;;;;;;;4951698;28;46180;-75
2023/05/22 08:11:29;;;;;;;;;9.50;9.50;;;;;;;;4951831;28;45442;-75
2023/05/22 08:13:55;;;;;;;;;9.50;9.25;;;;;;;;4950717;28;45571;-75
2023/05/22 08:16:20;;;;;;;;;10.00;7.75;;;;;;;;4961833;28;45541;-74
2023/05/22 08:18:45;;;;;;;;;9.50;9.50;;;;;;;;4955757;28;46245;-73
2023/05/22 08:21:12;;;;;;;;;7.75;7.75;;;;;;;;4951940;28;45440;-75
2023/05/22 08:23:37;;;;;;;;;8.25;8.25;;;;;;;;4949981;28;45364;-75
2023/05/22 08:26:03;;;;;;;;;8.50;7.00;;;;;;;;4950288;28;46637;-75
2023/05/22 08:28:28;;;;;;;;;7.75;7.75;;;;;;;;4950777;28;45833;-78
2023/05/22 08:30:54;;;;;;;;;7.50;6.50;;;;;;;;4941357;28;46311;-75
2023/05/22 08:33:19;;;;;;;;;10.50;7.75;;;;;;;;4934906;28;45539;-74
2023/05/22 08:35:44;;;;;;;;;12.00;9.50;;;;;;;;4942092;28;45781;-74
2023/05/22 08:38:10;;;;;;;;;6.00;6.00;;;;;;;;4943212;28;48168;-74
2023/05/22 08:40:39;;;;;;;;;8.00;7.00;;;;;;;;4943496;28;45850;-75
2023/05/22 08:43:05;;;;;;;;;8.00;7.25;;;;;;;;4945920;28;45794;-75
2023/05/22 08:45:32;;;;;;;;;11.25;8.25;;;;;;;;4949192;28;45551;-74
2023/05/22 08:47:58;;;;;;;;;9.50;7.25;;;;;;;;4938918;28;47048;-75
2023/05/22 08:50:24;;;;;;;;;8.50;7.50;;;;;;;;4944165;28;46010;-78
2023/05/22 08:52:50;;;;;;;;;9.25;6.75;;;;;;;;4943743;28;45443;-76
2023/05/22 08:55:18;;;;;;;;;8.00;7.25;;;;;;;;4946965;28;45817;-77
2023/05/22 08:57:44;;;;;;;;;10.50;9.25;;;;;;;;4947431;28;47228;-76
2023/05/22 09:00:10;;;;;;;;;7.25;6.75;;;;;;;;4942840;28;45556;-74
2023/05/22 09:02:36;;;;;;;;;7.50;7.00;;;;;;;;4945787;28;45409;-75
2023/05/22 09:05:04;;;;;;;;;11.25;7.00;;;;;;;;4941018;28;46042;-75
2023/05/22 09:07:29;;;;;;;;;10.75;8.00;;;;;;;;4939693;28;46909;-74
2023/05/22 09:09:55;;;;;;;;;10.00;7.25;;;;;;;;4946721;28;45760;-76
2023/05/22 09:12:21;;;;;;;;;9.50;8.00;;;;;;;;4941631;28;45926;-76
2023/05/22 09:14:46;;;;;;;;;9.75;8.75;;;;;;;;4939567;28;45859;-74
2023/05/22 09:17:13;;;;;;;;;5.00;4.50;;;;;;;;4958404;28;47137;-73
2023/05/22 09:19:45;;;;;;;;;8.00;6.25;;;;;;;;4948356;28;45633;-76
2023/05/22 09:22:10;;;;;;;;;10.50;8.00;;;;;;;;4950765;28;45472;-75
2023/05/22 09:24:43;;;;;;;;;11.25;10.25;;;;;;;;4954272;28;45818;-75
2023/05/22 09:27:09;;;;;;;;;2.00;1.00;;;;;;;;4963632;28;46182;-74
2023/05/22 09:29:48;;;;;;;;;9.50;7.50;;;;;;;;4952915;28;45440;-73
2023/05/22 09:32:14;;;;;;;;;7.50;7.50;;;;;;;;4949291;28;45538;-74
2023/05/22 09:34:39;;;;;;;;;9.75;8.00;;;;;;;;4954625;28;45359;-73
2023/05/22 09:37:04;;;;;;;;;7.50;7.50;;;;;;;;4952804;28;45842;-72
2023/05/22 09:39:40;;;;;;;;;8.00;7.25;;;;;;;;4951484;28;46109;-75
2023/05/22 09:42:07;;;;;;;;;9.25;9.00;;;;;;;;4953923;28;45673;-77
2023/05/22 09:44:32;;;;;;;;;10.00;9.25;;;;;;;;4953234;28;45508;-77
2023/05/22 09:46:58;;;;;;;;;13.75;9.50;;;;;;;;4954590;28;45698;-76
2023/05/22 09:49:23;;;;;;;;;10.25;9.50;;;;;;;;4954670;28;45445;-76
2023/05/22 09:51:51;;;;;;;;;10.75;10.25;;;;;;;;4954870;28;45710;-77
2023/05/22 09:54:18;;;;;;;;;9.25;8.00;;;;;;;;4953250;28;45513;-79
2023/05/22 09:56:46;;;;;;;;;10.75;9.75;;;;;;;;4954263;28;45746;-78
2023/05/22 09:59:12;;;;;;;;;8.50;8.00;;;;;;;;4953130;28;45409;-77
2023/05/22 10:01:38;;;;;;;;;8.50;8.00;;;;;;;;4955192;28;45381;-76
2023/05/22 10:04:04;;;;;;;;;10.00;8.00;;;;;;;;4952629;28;45763;-79
2023/05/22 10:06:30;;;;;;;;;10.25;9.75;;;;;;;;4955112;28;45778;-79
2023/05/22 10:09:01;;;;;;;;;11.25;10.00;;;;;;;;4950440;28;45524;-82
2023/05/22 10:11:28;;;;;;;;;13.75;12.00;;;;;;;;4952797;28;45463;-78
2023/05/22 10:13:54;;;;;;;;;13.50;11.50;;;;;;;;4951687;28;45572;-78
2023/05/22 10:16:20;;;;;;;;;9.50;9.50;;;;;;;;4958217;28;46763;-76
2023/05/22 10:18:47;;;;;;;;;14.75;11.25;;;;;;;;4952812;28;45902;-77
2023/05/22 10:21:14;;;;;;;;;10.75;9.00;;;;;;;;4952410;28;45465;-77
2023/05/22 10:23:40;;;;;;;;;11.25;10.50;;;;;;;;4959510;28;45440;-79
2023/05/22 10:26:06;;;;;;;;;14.67;13.33;;;;;;;;4954393;28;45738;-76
2023/05/22 10:28:43;;;;;;;;;14.75;13.75;;;;;;;;4951025;28;47318;-78
2023/05/22 10:31:17;;;;;;;;;10.50;10.00;;;;;;;;4943972;28;45734;-78
2023/05/22 10:33:50;;;;;;;;;11.00;9.75;;;;;;;;4949590;28;45647;-78
2023/05/22 10:36:19;;;;;;;;;11.75;11.75;;;;;;;;4954271;28;45959;-78
2023/05/22 10:38:44;;;;;;;;;11.75;11.75;;;;;;;;4953953;28;45480;-76
2023/05/22 10:41:10;;;;;;;;;8.50;8.50;;;;;;;;4948890;28;45618;-78
2023/05/22 10:43:41;;;;;;;;;12.75;12.25;;;;;;;;4956013;28;45937;-77
2023/05/22 10:46:08;;;;;;;;;13.75;11.50;;;;;;;;4953147;28;45860;-77
2023/05/22 10:48:46;;;;;;;;;11.25;11.25;;;;;;;;4952256;28;45427;-76
2023/05/22 10:51:13;;;;;;;;;9.50;8.50;;;;;;;;4950271;28;45753;-76
2023/05/22 10:53:39;;;;;;;;;12.50;12.50;;;;;;;;4953436;28;45872;-76
2023/05/22 10:56:11;;;;;;;;;12.00;11.25;;;;;;;;4944948;28;46218;-76
2023/05/22 10:58:36;;;;;;;;;16.75;15.50;;;;;;;;4941920;28;46320;-76
2023/05/22 11:01:17;;;;;;;;;14.25;12.50;;;;;;;;4949042;28;45497;-77
2023/05/22 11:03:48;;;;;;;;;14.75;13.00;;;;;;;;4936820;28;45732;-77
2023/05/22 11:06:28;;;;;;;;;15.00;11.75;;;;;;;;4945016;28;46101;-77
2023/05/22 11:08:55;;;;;;;;;14.75;14.25;;;;;;;;4946456;28;45953;-74
2023/05/22 11:11:23;;;;;;;;;18.75;14.50;;;;;;;;4947061;28;45469;-74
2023/05/22 11:13:52;;;;;;;;;14.33;14.33;;;;;;;;4948643;28;45534;-76
2023/05/22 11:16:18;;;;;;;;;15.67;12.67;;;;;;;;4953827;28;46968;-80
2023/05/22 11:18:43;;;;;;;;;11.75;11.75;;;;;;;;4953105;28;45330;-75
2023/05/22 11:21:10;;;;;;;;;17.67;16.67;;;;;;;;4952012;28;45616;-77
2023/05/22 11:23:35;;;;;;;;;16.75;14.25;;;;;;;;4951465;28;46489;-74
2023/05/22 11:26:17;;;;;;;;;13.00;12.67;;;;;;;;4952420;28;45854;-74
2023/05/22 11:28:47;;;;;;;;;17.00;15.00;;;;;;;;4951137;28;45691;-76
2023/05/22 11:31:13;;;;;;;;;22.67;18.00;;;;;;;;4944095;28;45605;-75
2023/05/22 11:33:38;;;;;;;;;15.00;12.75;;;;;;;;4953520;28;45685;-76
2023/05/22 11:36:03;;;;;;;;;18.00;15.67;;;;;;;;4950604;28;47335;-73
2023/05/22 11:38:29;;;;;;;;;13.33;13.33;;;;;;;;4952679;28;45351;-76
2023/05/22 11:40:54;;;;;;;;;16.00;14.33;;;;;;;;4951257;28;45704;-76
2023/05/22 11:43:31;;;;;;;;;17.00;15.00;;;;;;;;4949723;28;45915;-76
2023/05/22 11:46:05;;;;;;;;;20.33;17.67;;;;;;;;4946399;28;47039;-75
2023/05/22 11:48:30;;;;;;;;;22.00;18.67;;;;;;;;4941364;28;45879;-75
2023/05/22 11:50:55;;;;;;;;;21.67;19.67;;;;;;;;4949455;28;45676;-74
2023/05/22 11:53:21;;;;;;;;;14.33;14.33;;;;;;;;4947990;28;45551;-75
2023/05/22 11:55:47;;;;;;;;;16.67;16.67;;;;;;;;4951106;28;47110;-73
2023/05/22 11:58:12;;;;;;;;;25.33;17.00;;;;;;;;4957617;28;45629;-75
2023/05/22 12:00:38;;;;;;;;;18.67;17.33;;;;;;;;4958545;28;45715;-76
2023/05/22 12:03:05;;;;;;;;;19.67;17.33;;;;;;;;4948399;28;45630;-73
2023/05/22 12:05:31;;;;;;;;;19.00;17.33;;;;;;;;4953521;28;45504;-75
2023/05/22 12:07:56;;;;;;;;;14.67;14.67;;;;;;;;4951747;28;45451;-74
2023/05/22 12:10:21;;;;;;;;;20.67;17.00;;;;;;;;4952113;28;45744;-75
2023/05/22 12:12:46;;;;;;;;;17.67;12.67;;;;;;;;4945757;28;46097;-75
2023/05/22 12:15:12;;;;;;;;;17.00;14.33;;;;;;;;4954050;28;45590;-75
2023/05/22 12:17:38;;;;;;;;;22.00;19.33;;;;;;;;4952493;28;45534;-76
2023/05/22 12:20:04;;;;;;;;;19.67;18.00;;;;;;;;4951096;28;45823;-76
2023/05/22 12:22:29;;;;;;;;;17.00;17.00;;;;;;;;4946327;28;45839;-75
2023/05/22 12:24:55;;;;;;;;;19.33;17.00;;;;;;;;4950417;28;45916;-74
2023/05/22 12:27:20;;;;;;;;;21.00;18.67;;;;;;;;4942286;28;45779;-74
2023/05/22 12:29:45;;;;;;;;;14.33;12.67;;;;;;;;4941132;28;45919;-73
2023/05/22 12:32:11;;;;;;;;;19.33;18.67;;;;;;;;4935952;28;45799;-73
2023/05/22 12:34:46;;;;;;;;;19.67;19.33;;;;;;;;4945097;28;45482;-73
2023/05/22 12:37:26;;;;;;;;;23.33;19.67;;;;;;;;4937594;28;45640;-74
2023/05/22 12:39:52;;;;;;;;;20.67;19.33;;;;;;;;4946505;28;45746;-75
2023/05/22 12:42:17;;;;;;;;;18.67;18.00;;;;;;;;4949609;28;45636;-74
2023/05/22 12:44:44;;;;;;;;;17.33;17.33;;;;;;;;4943065;28;48046;-73
2023/05/22 12:47:10;;;;;;;;;16.33;15.33;;;;;;;;4949215;28;45697;-74
2023/05/22 12:49:35;;;;;;;;;22.00;20.00;;;;;;;;4952341;28;45480;-74
2023/05/22 12:52:00;;;;;;;;;24.00;20.33;;;;;;;;4961359;28;45469;-75
2023/05/22 12:54:25;;;;;;;;;22.67;18.00;;;;;;;;4949226;28;48279;-75
2023/05/22 12:56:51;;;;;;;;;22.33;19.67;;;;;;;;4952778;28;45397;-74
2023/05/22 12:59:16;;;;;;;;;21.00;21.00;;;;;;;;4954321;28;45692;-74
2023/05/22 13:01:41;;;;;;;;;20.00;19.67;;;;;;;;4953166;28;47174;-76
2023/05/22 13:04:06;;;;;;;;;18.33;17.33;;;;;;;;4952716;28;46638;-75
2023/05/22 13:06:32;;;;;;;;;20.33;19.33;;;;;;;;4955003;28;45390;-75
2023/05/22 13:08:57;;;;;;;;;16.67;15.67;;;;;;;;4953483;28;45568;-74
2023/05/22 13:11:23;;;;;;;;;17.33;17.33;;;;;;;;4954587;28;45327;-75
2023/05/22 13:13:48;;;;;;;;;21.67;21.67;;;;;;;;4943565;28;46635;-79
2023/05/22 13:16:13;;;;;;;;;18.33;17.67;;;;;;;;4947133;28;45869;-74
2023/05/22 13:18:39;;;;;;;;;20.67;17.33;;;;;;;;4948999;28;46055;-73
2023/05/22 13:21:05;;;;;;;;;18.33;17.33;;;;;;;;4953317;28;45948;-74
2023/05/22 13:23:30;;;;;;;;;24.00;19.00;;;;;;;;4944682;28;45623;-73
2023/05/22 13:25:55;;;;;;;;;20.33;17.67;;;;;;;;4953994;28;45496;-72
2023/05/22 13:28:20;;;;;;;;;23.00;21.00;;;;;;;;4951002;28;45932;-74
2023/05/22 13:30:45;;;;;;;;;9.00;9.00;;;;;;;;4945116;28;47058;-74
2023/05/22 13:33:12;;;;;;;;;18.33;16.67;;;;;;;;4950628;28;48365;-74
2023/05/22 13:35:37;;;;;;;;;18.67;17.67;;;;;;;;4952577;28;45901;-72
2023/05/22 13:38:02;;;;;;;;;19.00;18.67;;;;;;;;4946406;28;45878;-74
2023/05/22 13:40:28;;;;;;;;;17.67;16.67;;;;;;;;4945465;28;45689;-72
2023/05/22 13:42:53;;;;;;;;;19.67;19.67;;;;;;;;4941670;28;45618;-73
2023/05/22 13:45:18;;;;;;;;;23.67;20.00;;;;;;;;4950540;28;46042;-74
2023/05/22 13:47:44;;;;;;;;;15.67;14.67;;;;;;;;4947258;28;45659;-72
2023/05/22 13:50:09;;;;;;;;;19.67;18.33;;;;;;;;4946612;28;46742;-72
2023/05/22 13:52:34;;;;;;;;;21.00;20.67;;;;;;;;4947147;28;45434;-71
2023/05/22 13:55:00;;;;;;;;;18.67;17.67;;;;;;;;4951771;28;46094;-83
2023/05/22 13:57:25;;;;;;;;;19.00;17.33;;;;;;;;4948527;28;45389;-72
2023/05/22 13:59:51;;;;;;;;;18.33;16.67;;;;;;;;4950624;28;46617;-73
2023/05/22 14:02:19;;;;;;;;;23.67;16.67;;;;;;;;4943774;28;45831;-73
2023/05/22 14:04:44;;;;;;;;;21.00;19.33;;;;;;;;4946145;28;45833;-73
2023/05/22 14:07:09;;;;;;;;;19.33;15.00;;;;;;;;4944261;28;46022;-71
2023/05/22 14:09:46;;;;;;;;;22.00;18.67;;;;;;;;4946265;28;46166;-82
2023/05/22 14:12:11;;;;;;;;;20.67;18.33;;;;;;;;4947023;28;45539;-73
2023/05/22 14:14:36;;;;;;;;;20.33;17.67;;;;;;;;4946124;28;45760;-74
2023/05/22 14:17:02;;;;;;;;;15.67;15.67;;;;;;;;4951336;28;45778;-72
2023/05/22 14:19:28;;;;;;;;;19.33;17.67;;;;;;;;4950058;28;45488;-72